Latest Weather Observations for Sheoaks

IDV60901

Issued at 12:41 pm EST Wednesday 2 September 2015 (issued every 10 minutes, with the page automatically refreshed every 10 minutes)

About weather observations | Map of Melbourne area stations | Latest observations for Melbourne area | Other Formats
Station Details ID: 087168 Name: SHEOAKS Lat: -37.91 Lon: 144.13 Height: 236.7 m
Data from the previous 72 hours. | See also: Recent months at Sheoaks
Date/Time
EST
Tmp

°C
App
Tmp
°C
Dew
Point
°C
Rel
Hum
%
Delta-T

°C
Wind Press
QNH
hPa
Press
MSL
hPa
Rain
since
9 am
mm
Dir
 
Spd
km/h
Gust
km/h
Spd
kts
Gust
kts
02/12:30pm 13.2 9.6 5.1 58 3.8 NNE 13 20 7 11 1009.1 1009.2 0.0
02/12:00pm 13.4 8.5 5.1 57 3.9 N 20 30 11 16 1009.7 1009.8 0.0
02/11:30am 14.6 9.4 5.7 55 4.3 N 22 32 12 17 1009.8 1009.9 0.0
02/11:00am 13.3 7.5 4.5 55 4.1 N 24 32 13 17 1010.0 1010.1 0.0
02/10:30am 13.3 8.4 5.2 58 3.8 N 20 30 11 16 1010.1 1010.2 0.0
02/10:00am 12.6 7.8 4.8 59 3.6 N 19 32 10 17 1010.0 1010.1 0.0
02/09:30am 11.6 6.9 5.0 64 3.1 NNE 19 28 10 15 1010.6 1010.7 0.0
02/09:00am 11.1 7.1 4.8 65 2.9 NNE 15 22 8 12 1010.7 1010.8 0.0
02/08:30am 11.1 4.9 4.3 63 3.1 N 26 33 14 18 1010.6 1010.7 0.0
02/08:00am 10.7 4.5 4.2 64 2.9 N 26 41 14 22 1010.6 1010.7 0.0
02/07:30am 10.5 3.9 4.2 65 2.8 N 28 41 15 22 1010.5 1010.6 0.0
02/07:00am 10.6 5.7 3.9 63 3.0 N 19 28 10 15 1010.9 1011.0 0.0
02/06:30am 11.1 5.5 3.6 60 3.4 N 22 35 12 19 1010.6 1010.7 0.0
02/06:00am 11.5 4.8 3.5 58 3.6 N 28 39 15 21 1010.6 1010.7 0.0
02/05:30am 11.2 6.3 4.0 61 3.3 N 19 28 10 15 1010.7 1010.8 0.0
02/05:00am 11.5 5.6 4.0 60 3.4 N 24 35 13 19 1010.9 1011.0 0.0
02/04:30am 11.3 5.4 4.1 61 3.3 N 24 37 13 20 1010.7 1010.8 0.0
02/04:00am 10.9 5.8 4.1 63 3.1 N 20 28 11 15 1011.0 1011.1 0.0
02/03:30am 11.1 5.6 4.1 62 3.2 N 22 35 12 19 1011.0 1011.1 0.0
02/03:00am 10.9 5.4 3.9 62 3.2 N 22 33 12 18 1011.2 1011.4 0.0
02/02:30am 10.0 5.1 4.0 66 2.7 N 19 26 10 14 1011.6 1011.7 0.0
02/02:00am 9.5 4.6 3.9 68 2.5 N 19 28 10 15 1011.8 1011.9 0.0
02/01:30am 9.3 4.7 3.9 69 2.4 N 17 22 9 12 1012.0 1012.1 0.0
02/01:00am 8.9 4.3 3.9 71 2.2 N 17 22 9 12 1012.2 1012.3 0.0
02/12:30am 8.9 4.0 4.1 72 2.1 N 19 22 10 12 1012.4 1012.5 0.0
02/12:00am 8.3 3.7 3.9 74 1.9 N 17 22 9 12 1012.4 1012.5 0.0
 
Date/Time
EST
Tmp

°C
App
Tmp
°C
Dew
Point
°C
Rel
Hum
%
Delta-T

°C
Wind Press
QNH
hPa
Press
MSL
hPa
Rain
since
9 am
mm
Dir
 
Spd
km/h
Gust
km/h
Spd
kts
Gust
kts
01/11:30pm 7.2 3.3 3.6 78 1.6 N 13 17 7 9 1012.6 1012.7 0.0
01/11:00pm 6.5 3.1 3.8 83 1.2 N 11 13 6 7 1012.8 1012.9 0.0
01/10:30pm 5.5 2.7 3.3 86 0.9 NNE 7 11 4 6 1012.9 1013.0 0.0
01/10:00pm 6.3 2.8 3.6 83 1.2 ENE 11 11 6 6 1013.2 1013.3 0.0
01/09:30pm 6.8 4.0 3.4 79 1.5 NE 7 7 4 4 1013.4 1013.5 0.0
01/09:00pm 6.4 3.9 3.9 84 1.1 N 6 7 3 4 1013.6 1013.7 0.0
01/08:30pm 7.6 5.1 4.0 78 1.6 N 6 7 3 4 1013.6 1013.7 0.0
01/08:00pm 8.1 6.1 4.5 78 1.6 N 4 6 2 3 1013.6 1013.7 0.0
01/07:30pm 8.3 7.0 4.3 76 1.8 CALM 0 2 0 1 1013.3 1013.4 0.0
01/07:00pm 8.3 5.4 4.7 78 1.6 NE 9 11 5 6 1013.3 1013.4 0.0
01/06:30pm 9.5 6.7 5.3 75 1.9 ENE 9 13 5 7 1013.2 1013.3 0.0
01/06:00pm 9.6 7.4 5.4 75 1.9 ESE 6 9 3 5 1013.0 1013.1 0.0
01/05:30pm 11.4 9.1 5.9 69 2.6 ESE 7 9 4 5 1012.7 1012.8 0.0
01/05:00pm 13.8 11.9 4.9 55 4.2 NW 4 7 2 4 1012.6 1012.7 0.0
01/04:30pm 14.0 10.8 3.2 48 4.9 NW 9 15 5 8 1012.6 1012.7 0.0
01/04:00pm 14.6 12.1 4.6 51 4.7 NW 7 13 4 7 1012.8 1012.9 0.0
01/03:30pm 15.2 13.5 5.7 53 4.6 N 4 11 2 6 1013.3 1013.4 0.0
01/03:00pm 14.3 11.6 3.5 48 5.0 WNW 7 15 4 8 1013.4 1013.5 0.0
01/02:30pm 14.0 10.9 3.5 49 4.8 N 9 15 5 8 1013.7 1013.8 0.0
01/02:00pm 13.8 11.3 4.9 55 4.2 NW 7 15 4 8 1013.8 1013.9 0.0
01/01:30pm 13.4 11.5 5.1 57 3.9 SSE 4 9 2 5 1014.1 1014.2 0.0
01/01:00pm 12.8 10.6 3.5 53 4.2 SSW 4 7 2 4 1014.5 1014.6 0.0
01/12:30pm 12.3 9.8 3.8 56 3.9 WNW 6 11 3 6 1015.2 1015.4 0.0
01/12:00pm 11.4 8.6 3.2 57 3.6 NW 7 15 4 8 1016.1 1016.2 0.0
01/11:30am 11.0 7.9 3.8 61 3.2 NW 9 19 5 10 1016.6 1016.7 0.0
01/11:00am 10.3 6.8 3.3 62 3.1 WNW 11 19 6 10 1016.7 1016.8 0.0
01/10:30am 10.0 7.1 4.4 68 2.5 NW 9 15 5 8 1016.9 1017.0 0.0
01/10:00am 8.8 5.9 2.8 66 2.6 N 7 13 4 7 1016.9 1017.0 0.0
01/09:30am 8.2 5.4 3.3 71 2.1 NNW 7 11 4 6 1017.0 1017.3 0.0
01/09:00am 6.3 4.0 2.6 77 1.5 NNW 4 6 2 3 1016.9 1017.2 0.0
01/08:30am 3.7 0.6 1.3 84 0.9 N 7 9 4 5 1016.9 1017.2 0.0
01/08:00am 1.7 -2.0 0.1 89 0.6 N 9 11 5 6 1016.7 1017.0 0.0
01/07:30am 0.0 -4.2 -1.0 93 0.4 N 11 15 6 8 1016.7 1017.0 0.0
01/07:00am -1.0 -5.7 -1.6 96 0.2 N 13 15 7 8 1016.6 1016.9 0.0
01/06:30am -1.2 -5.1 -1.8 96 0.2 NNW 9 11 5 6 1016.4 1016.7 0.0
01/06:00am -1.1 -5.4 -1.7 96 0.2 NNW 11 13 6 7 1016.0 1016.2 0.0
01/05:30am -0.8 -5.1 -1.4 96 0.2 N 11 11 6 6 1016.3 1016.6 0.0
01/05:00am -0.7 -4.6 -1.3 96 0.2 N 9 11 5 6 1016.2 1016.4 0.0
01/04:30am -0.5 -4.7 -0.9 97 0.1 NNW 11 11 6 6 1016.4 1016.7 0.0
01/04:00am -0.1 -3.9 -0.5 97 0.1 N 9 11 5 6 1016.5 1016.8 0.0
01/03:30am 0.5 -3.2 -0.1 96 0.2 N 9 11 5 6 1016.8 1017.1 0.0
01/03:00am 0.9 -2.7 0.3 96 0.2 N 9 11 5 6 1017.3 1017.6 0.0
01/02:30am 1.4 -2.2 0.8 96 0.2 NNW 9 9 5 5 1017.6 1017.9 0.0
01/02:00am 2.2 -0.9 1.5 95 0.3 N 7 9 4 5 1017.9 1018.2 0.0
01/01:30am 3.8 1.5 2.8 93 0.4 N 4 6 2 3 1018.1 1018.4 0.0
01/01:00am 5.5 3.4 2.0 78 1.4 SSE 2 4 1 2 1018.2 1018.5 0.0
01/12:30am 6.5 4.6 3.1 79 1.4 ESE 2 6 1 3 1018.4 1018.7 0.0
01/12:00am 5.8 4.4 3.3 84 1.1 CALM 0 4 0 2 1018.5 1018.8 0.0
 
Date/Time
EST
Tmp

°C
App
Tmp
°C
Dew
Point
°C
Rel
Hum
%
Delta-T

°C
Wind Press
QNH
hPa
Press
MSL
hPa
Rain
since
9 am
mm
Dir
 
Spd
km/h
Gust
km/h
Spd
kts
Gust
kts
31/11:30pm 6.3 4.3 2.2 75 1.7 NNE 2 6 1 3 1018.7 1019.0 0.0
31/11:00pm 5.8 4.0 3.3 84 1.1 N 2 4 1 2 1018.7 1019.0 0.0
31/10:30pm 5.7 3.9 3.5 86 0.9 N 2 4 1 2 1019.0 1019.3 0.0
31/10:00pm 5.8 4.0 3.3 84 1.1 N 2 4 1 2 1019.2 1019.5 0.0
31/09:30pm 6.2 4.7 3.2 81 1.3 CALM 0 0 0 0 1019.0 1019.3 0.0
31/09:00pm 6.7 4.4 2.6 75 1.7 E 4 6 2 3 1019.0 1019.3 0.0
31/08:30pm 7.2 4.9 2.7 73 1.9 ESE 4 6 2 3 1019.1 1019.4 0.0
31/08:00pm 6.8 4.2 3.1 77 1.6 ESE 6 7 3 4 1018.9 1019.2 0.0
31/07:30pm 7.3 4.4 2.8 73 1.9 ESE 7 9 4 5 1018.9 1019.2 0.0
31/07:00pm 7.8 5.0 3.3 73 1.9 ESE 7 11 4 6 1018.8 1019.1 0.0
31/06:30pm 8.1 5.3 3.2 71 2.1 ESE 7 11 4 6 1018.7 1019.0 0.0
31/06:00pm 8.6 5.9 3.6 71 2.2 ESE 7 11 4 6 1018.6 1018.9 0.0
31/05:30pm 9.1 6.0 3.5 68 2.5 ESE 9 13 5 7 1018.6 1018.9 0.0
31/05:00pm 9.9 7.3 3.4 64 2.9 WSW 6 9 3 5 1018.6 1018.9 0.0
31/04:30pm 10.3 7.1 3.1 61 3.2 SSW 9 13 5 7 1018.6 1018.9 0.0
31/04:00pm 11.1 8.4 2.9 57 3.6 WSW 6 9 3 5 1018.5 1018.8 0.0
31/03:30pm 10.9 8.6 3.0 58 3.5 SW 4 9 2 5 1018.7 1019.0 0.0
31/03:00pm 9.9 6.7 3.0 62 3.0 S 9 15 5 8 1018.9 1019.2 0.0
31/02:30pm 10.3 7.6 3.6 63 3.0 SSE 7 13 4 7 1019.1 1019.4 0.0
31/02:00pm 10.0 7.3 2.6 60 3.2 SW 6 9 3 5 1019.2 1019.5 0.0
31/01:30pm 10.6 8.3 2.7 58 3.4 WSW 4 6 2 3 1019.3 1019.6 0.0
31/01:00pm 9.9 7.2 3.9 66 2.7 SSW 7 13 4 7 1019.7 1020.0 0.0
31/12:30pm 9.6 6.9 3.6 66 2.6 SSE 7 13 4 7 1020.0 1020.4 0.0
31/12:00pm 9.2 5.9 2.5 63 2.9 SSE 9 17 5 9 1020.6 1020.9 0.0
31/11:30am 9.0 6.7 2.6 64 2.7 SW 4 11 2 6 1020.9 1021.2 0.0
31/11:00am 8.4 5.6 3.3 70 2.2 SSE 7 11 4 6 1021.0 1021.3 0.0
31/10:30am 8.3 5.3 2.3 66 2.5 SW 7 15 4 8 1021.1 1021.4 0.0
31/10:00am 8.1 5.1 2.1 66 2.5 S 7 11 4 6 1021.2 1021.5 0.0
31/09:30am 8.1 4.9 3.0 70 2.2 SSW 9 17 5 9 1021.2 1021.5 0.0
31/09:00am 7.4 4.9 3.6 77 1.6 SSW 6 9 3 5 1021.3 1021.6 0.0
31/08:30am 6.6 5.0 4.3 85 1.0 WNW 2 6 1 3 1021.3 1021.6 0.0
31/08:00am 6.2 3.8 4.5 89 0.7 W 6 9 3 5 1021.2 1021.5 0.0
31/07:30am 5.8 4.3 4.9 94 0.4 NW 2 4 1 2 1021.0 1021.3 0.0
31/07:00am 5.7 4.2 5.0 95 0.3 SW 2 4 1 2 1020.9 1021.2 0.0
31/06:30am 5.7 4.2 5.0 95 0.3 SSW 2 6 1 3 1020.8 1021.1 0.0
31/06:00am 5.8 3.6 5.1 95 0.3 W 6 9 3 5 1020.7 1021.0 0.0
31/05:30am 5.8 2.9 4.6 92 0.5 WSW 9 15 5 8 1020.8 1021.1 0.0
31/05:00am 5.8 2.9 4.6 92 0.5 W 9 13 5 7 1020.7 1021.0 0.0
31/04:30am 5.7 2.4 4.5 92 0.5 W 11 15 6 8 1020.8 1021.1 0.0
31/04:00am 5.7 2.4 4.3 91 0.6 W 11 15 6 8 1020.8 1021.1 0.0
31/03:30am 5.7 2.7 4.2 90 0.6 W 9 13 5 7 1020.9 1021.2 0.0
31/03:00am 5.6 3.0 4.2 91 0.6 W 7 11 4 6 1021.1 1021.4 0.0
31/02:30am 5.8 3.3 3.6 86 0.9 WSW 6 11 3 6 1021.5 1021.8 0.0
31/02:00am 5.7 3.2 3.7 87 0.8 W 6 7 3 4 1021.8 1022.1 0.0
31/01:30am 6.0 3.8 3.3 83 1.1 WSW 4 9 2 5 1022.1 1022.4 0.0
31/01:00am 6.1 3.0 3.4 83 1.1 W 9 11 5 6 1022.3 1022.6 0.0
31/12:30am 6.4 3.7 3.6 82 1.2 W 7 11 4 6 1022.4 1022.7 0.0
31/12:00am 6.5 3.7 3.3 80 1.4 W 7 9 4 5 1022.6 1022.9 0.0
 
Date/Time
EST
Tmp

°C
App
Tmp
°C
Dew
Point
°C
Rel
Hum
%
Delta-T

°C
Wind Press
QNH
hPa
Press
MSL
hPa
Rain
since
9 am
mm
Dir
 
Spd
km/h
Gust
km/h
Spd
kts
Gust
kts
30/11:30pm 6.5 3.7 3.3 80 1.4 W 7 11 4 6 1022.9 1023.2 0.0
30/11:00pm 6.5 3.8 3.7 82 1.2 WSW 7 11 4 6 1023.2 1023.5 0.0
30/10:30pm 6.6 4.1 3.8 82 1.2 WSW 6 13 3 7 1023.4 1023.8 0.0
30/10:00pm 6.7 4.2 3.9 82 1.2 WSW 6 11 3 6 1023.6 1024.0 0.0
30/09:30pm 6.9 4.9 4.6 85 1.0 WSW 4 7 2 4 1023.7 1024.1 0.0
30/09:00pm 7.2 4.7 4.7 84 1.1 SW 7 13 4 7 1023.8 1024.2 0.0
30/08:30pm 7.4 4.9 4.5 82 1.3 SW 7 11 4 6 1023.8 1024.2 0.0
30/08:00pm 7.7 4.7 4.3 79 1.5 SW 9 13 5 7 1023.6 1024.0 0.0
30/07:30pm 7.8 6.0 5.3 84 1.1 S 4 4 2 2 1023.5 1023.9 0.0
30/07:00pm 7.9 6.4 5.0 82 1.3 SE 2 4 1 2 1023.5 1023.9 0.0
30/06:30pm 8.0 5.7 4.8 80 1.4 SSE 6 7 3 4 1023.4 1023.8 0.0
30/06:00pm 8.4 5.9 4.6 77 1.7 SE 7 13 4 7 1023.0 1023.3 0.0
30/05:30pm 9.0 6.7 4.8 75 1.9 SE 6 11 3 6 1022.8 1023.1 0.0
30/05:00pm 9.2 6.3 4.4 72 2.1 SE 9 13 5 7 1022.9 1023.2 0.0
30/04:30pm 10.1 7.3 5.3 72 2.2 SE 9 13 5 7 1022.8 1023.1 0.0
30/04:00pm 10.3 7.9 5.1 70 2.4 SE 7 11 4 6 1022.9 1023.2 0.0
30/03:30pm 10.6 8.2 5.2 69 2.5 SSW 7 11 4 6 1023.1 1023.4 0.0
30/03:00pm 10.4 7.7 5.4 71 2.3 SSE 9 13 5 7 1023.2 1023.5 0.0
30/02:30pm 10.4 7.5 4.8 68 2.6 SSE 9 13 5 7 1023.4 1023.8 0.0
30/02:00pm 10.3 7.4 4.5 67 2.6 S 9 15 5 8 1023.4 1023.8 0.0
30/01:30pm 9.9 6.7 5.1 72 2.2 S 11 15 6 8 1023.6 1024.0 0.0
30/01:00pm 10.0 7.2 5.0 71 2.3 S 9 17 5 9 1023.8 1024.2 0.0

Latest Capital City Observations: Canberra | Sydney | Melbourne | Brisbane | Adelaide | Perth | Hobart | Darwin

Other Formats:

Comma delimited format used in spreadsheet applications
http://www.bom.gov.au/fwo/IDV60901/IDV60901.94863.axf

JavaScript Object Notation format (JSON) in row-major order
http://www.bom.gov.au/fwo/IDV60901/IDV60901.94863.json